Time;durP1;ratioP1;P1;durP2;ratioP2;P2;SDS_P1;SDS_P2;PMS_P1;PMS_P2;Temp;Humidity;BMP_temperature;BMP_pressure;BME280_temperature;BME280_humidity;BME280_pressure;Samples;Min_cycle;Max_cycle;Signal;HPM_P1;HPM_P2
2023/10/06 00:01:55;;;;;;;;;;;;;;;10.07;100.00;101461.22;5084374;28;19951;-72
2023/10/06 00:04:41;;;;;;;;;;;;;;;10.04;100.00;101466.47;5084086;28;19915;-72
2023/10/06 00:07:26;;;;;;;;;;;;;;;10.01;100.00;101456.75;5098375;28;20457;-72
2023/10/06 00:10:17;;;;;;;;;;;;;;;9.95;100.00;101460.59;5098865;28;20004;-72
2023/10/06 00:13:04;;;;;;;;;;;;;;;9.97;100.00;101465.84;5097848;28;19938;-72
2023/10/06 00:15:51;;;;;;;;;;;;;;;9.97;100.00;101465.84;5097941;28;19915;-72
2023/10/06 00:18:37;;;;;;;;;;;;;;;9.92;100.00;101458.34;5098355;28;19915;-72
2023/10/06 00:21:21;;;;;;;;;;;;;;;9.88;100.00;101461.91;5086329;28;19922;-72
2023/10/06 00:24:07;;;;;;;;;;;;;;;9.88;100.00;101451.66;5081471;28;20319;-72
2023/10/06 00:26:52;;;;;;;;;;;;;;;9.82;100.00;101463.81;5078350;28;19950;-72
2023/10/06 00:29:36;;;;;;;;;;;;;;;9.77;100.00;101461.81;5093624;28;19989;-72
2023/10/06 00:32:21;;;;;;;;;;;;;;;9.77;100.00;101466.53;5097506;28;20009;-73
2023/10/06 00:35:11;;;;;;;;;;;;;;;9.74;100.00;101469.84;5082458;28;19958;-73
2023/10/06 00:37:59;;;;;;;;;;;;;;;9.73;100.00;101470.97;5077759;28;19949;-72
2023/10/06 00:40:54;;;;;;;;;;;;;;;9.68;100.00;101462.59;5077679;28;19998;-72
2023/10/06 00:43:39;;;;;;;;;;;;;;;9.67;100.00;101466.44;5096248;28;19919;-72
2023/10/06 00:46:23;;;;;;;;;;;;;;;9.67;100.00;101472.00;5097425;28;19915;-72
2023/10/06 00:49:07;;;;;;;;;;;;;;;9.59;100.00;101471.41;5097247;28;19965;-72
2023/10/06 00:51:53;;;;;;;;;;;;;;;9.60;100.00;101461.97;5083067;28;19915;-72
2023/10/06 00:54:43;;;;;;;;;;;;;;;9.54;100.00;101474.13;5079741;28;19923;-72
2023/10/06 00:57:28;;;;;;;;;;;;;;;9.52;100.00;101478.25;5076672;28;20311;-72
2023/10/06 01:00:20;;;;;;;;;;;;;;;9.50;100.00;101475.75;5076909;28;19982;-72
2023/10/06 01:03:14;;;;;;;;;;;;;;;9.48;100.00;101466.88;5096528;28;20391;-72
2023/10/06 01:06:05;;;;;;;;;;;;;;;9.43;100.00;101461.28;5097133;28;19965;-72
2023/10/06 01:08:54;;;;;;;;;;;;;;;9.42;100.00;101454.06;5097137;28;19919;-72
2023/10/06 01:11:43;;;;;;;;;;;;;;;9.42;100.00;101462.38;5084796;28;20037;-72
2023/10/06 01:14:27;;;;;;;;;;;;;;;9.39;100.00;101465.69;5097216;28;19964;-72
2023/10/06 01:17:17;;;;;;;;;;;;;;;9.33;100.00;101461.16;5096805;28;19950;-72
2023/10/06 01:20:02;;;;;;;;;;;;;;;9.31;100.00;101463.38;5077479;28;19914;-74
2023/10/06 01:22:52;;;;;;;;;;;;;;;9.27;100.00;101456.66;5063662;28;19930;-74
2023/10/06 01:25:37;;;;;;;;;;;;;;;9.28;100.00;101458.38;5093453;28;19915;-74
2023/10/06 01:28:23;;;;;;;;;;;;;;;9.21;100.00;101458.56;5096729;28;19957;-74
2023/10/06 01:31:07;;;;;;;;;;;;;;;9.23;100.00;101453.59;5097953;28;20377;-74
2023/10/06 01:33:51;;;;;;;;;;;;;;;9.18;100.00;101454.38;5096101;28;19915;-74
2023/10/06 01:36:38;;;;;;;;;;;;;;;9.19;100.00;101452.44;5105902;28;19922;-74
2023/10/06 01:39:23;;;;;;;;;;;;;;;9.13;100.00;101451.53;5107194;28;20357;-74
2023/10/06 01:42:07;;;;;;;;;;;;;;;9.16;100.00;101451.03;5103479;28;19919;-74
2023/10/06 01:44:51;;;;;;;;;;;;;;;9.11;100.00;101453.75;5103014;28;19915;-74
2023/10/06 01:47:35;;;;;;;;;;;;;;;9.12;100.00;101452.66;5087983;28;20014;-74
2023/10/06 01:50:19;;;;;;;;;;;;;;;9.08;100.00;101443.19;5069245;28;19980;-74
2023/10/06 01:53:07;;;;;;;;;;;;;;;9.08;100.00;101448.75;5099565;28;19914;-74
2023/10/06 01:55:51;;;;;;;;;;;;;;;9.03;100.00;101448.69;5083134;28;19978;-74
2023/10/06 01:58:35;;;;;;;;;;;;;;;9.03;100.00;101445.09;5085454;28;19934;-74
2023/10/06 02:01:19;;;;;;;;;;;;;;;9.05;100.00;101452.00;5110006;28;19914;-74
2023/10/06 02:04:07;;;;;;;;;;;;;;;8.96;100.00;101464.66;5076845;28;19947;-74
2023/10/06 02:06:51;;;;;;;;;;;;;;;8.95;100.00;101458.28;5093568;28;19968;-74
2023/10/06 02:09:37;;;;;;;;;;;;;;;8.96;100.00;101464.66;5098668;28;20313;-74
2023/10/06 02:12:21;;;;;;;;;;;;;;;8.92;100.00;101452.44;5074299;28;20306;-74
2023/10/06 02:15:10;;;;;;;;;;;;;;;8.89;100.00;101451.03;5106552;28;19914;-74
2023/10/06 02:17:54;;;;;;;;;;;;;;;8.89;100.00;101451.03;5083066;28;20007;-74
2023/10/06 02:20:42;;;;;;;;;;;;;;;8.87;100.00;101452.38;5110033;28;19956;-74
2023/10/06 02:23:28;;;;;;;;;;;;;;;8.85;100.00;101443.50;5094804;28;19915;-74
2023/10/06 02:26:13;;;;;;;;;;;;;;;8.83;100.00;101445.69;5085429;28;19915;-74
2023/10/06 02:28:57;;;;;;;;;;;;;;;8.81;100.00;101443.19;5107634;28;19982;-74
2023/10/06 02:31:42;;;;;;;;;;;;;;;8.75;100.00;101435.91;5082372;28;19926;-74
2023/10/06 02:34:29;;;;;;;;;;;;;;;8.76;100.00;101440.34;5106107;28;20012;-74
2023/10/06 02:37:13;;;;;;;;;;;;;;;8.75;100.00;101438.69;5080430;28;20294;-75
2023/10/06 02:39:57;;;;;;;;;;;;;;;8.75;100.00;101437.81;5095332;28;19930;-74
2023/10/06 02:42:47;;;;;;;;;;;;;;;8.70;100.00;101445.00;5095775;28;19931;-74
2023/10/06 02:45:40;;;;;;;;;;;;;;;8.70;100.00;101446.94;5070541;28;19915;-74
2023/10/06 02:48:28;;;;;;;;;;;;;;;8.70;100.00;101436.69;5098900;28;19935;-74
2023/10/06 02:51:18;;;;;;;;;;;;;;;8.66;100.00;101430.00;5100862;28;19914;-74
2023/10/06 02:57:04;;;;;;;;;;;;;;;8.62;100.00;101434.38;5088935;28;19915;-74
2023/10/06 02:59:48;;;;;;;;;;;;;;;8.59;100.00;101432.13;5099332;28;19926;-74
2023/10/06 03:02:34;;;;;;;;;;;;;;;8.59;100.00;101432.13;5100607;28;19915;-74
2023/10/06 03:05:19;;;;;;;;;;;;;;;8.57;100.00;101430.69;5100877;28;19950;-74
2023/10/06 03:08:11;;;;;;;;;;;;;;;8.56;100.00;101429.88;5087607;28;19937;-74
2023/10/06 03:10:55;;;;;;;;;;;;;;;8.55;100.00;101428.16;5099061;28;20375;-74
2023/10/06 03:13:48;;;;;;;;;;;;;;;8.55;100.00;101430.13;5099261;28;19946;-75
2023/10/06 03:16:32;;;;;;;;;;;;;;;8.50;100.00;101419.84;5088190;28;19915;-74
2023/10/06 03:19:18;;;;;;;;;;;;;;;8.47;100.00;101421.19;5100676;28;19974;-74
2023/10/06 03:22:06;;;;;;;;;;;;;;;8.44;100.00;101421.69;5099107;28;20363;-74
2023/10/06 03:24:58;;;;;;;;;;;;;;;8.45;100.00;101422.53;5098898;28;19919;-74
2023/10/06 03:27:42;;;;;;;;;;;;;;;8.43;100.00;101422.78;5087403;28;19915;-74
2023/10/06 03:30:34;;;;;;;;;;;;;;;8.41;100.00;101416.69;5099193;28;19920;-74
2023/10/06 03:33:19;;;;;;;;;;;;;;;8.40;100.00;101425.22;5098529;28;19914;-74
2023/10/06 03:36:04;;;;;;;;;;;;;;;8.37;100.00;101432.09;5105435;28;19923;-74
2023/10/06 03:38:57;;;;;;;;;;;;;;;8.33;100.00;101432.84;5105558;28;19952;-74
2023/10/06 03:41:46;;;;;;;;;;;;;;;8.32;100.00;101433.94;5105444;28;19987;-74
2023/10/06 03:44:30;;;;;;;;;;;;;;;8.32;100.00;101433.94;5106720;28;19957;-74
2023/10/06 03:47:15;;;;;;;;;;;;;;;8.28;100.00;101436.41;5098222;28;19957;-74
2023/10/06 03:50:00;;;;;;;;;;;;;;;8.32;100.00;101431.19;5112029;28;19950;-74
2023/10/06 03:52:44;;;;;;;;;;;;;;;8.28;100.00;101433.63;5112286;28;19914;-74
2023/10/06 03:55:28;;;;;;;;;;;;;;;8.27;100.00;101434.69;5108519;28;19926;-74
2023/10/06 03:58:25;;;;;;;;;;;;;;;8.27;100.00;101438.34;5104755;28;19961;-74
2023/10/06 04:01:11;;;;;;;;;;;;;;;8.23;100.00;101437.16;5085103;28;20027;-74
2023/10/06 04:03:58;;;;;;;;;;;;;;;8.23;100.00;101439.09;5078482;28;20360;-74
2023/10/06 04:06:43;;;;;;;;;;;;;;;8.22;100.00;101435.50;5067388;28;19961;-74
2023/10/06 04:09:31;;;;;;;;;;;;;;;8.21;100.00;101447.63;5098802;28;19919;-74
2023/10/06 04:12:15;;;;;;;;;;;;;;;8.19;100.00;101447.06;5084422;28;19915;-74
2023/10/06 04:14:59;;;;;;;;;;;;;;;8.17;100.00;101448.41;5086859;28;19915;-74
2023/10/06 04:17:42;;;;;;;;;;;;;;;8.15;100.00;101447.84;5081448;28;19934;-74
2023/10/06 04:20:27;;;;;;;;;;;;;;;8.13;100.00;101439.78;5078845;28;20470;-74
2023/10/06 04:23:11;;;;;;;;;;;;;;;8.13;100.00;101445.31;5098232;28;19914;-74
2023/10/06 04:25:56;;;;;;;;;;;;;;;8.12;100.00;101442.81;5111533;28;19931;-74
2023/10/06 04:28:40;;;;;;;;;;;;;;;8.10;100.00;101445.00;5080235;28;20030;-74
2023/10/06 04:31:24;;;;;;;;;;;;;;;8.11;100.00;101441.13;5079059;28;19979;-74
2023/10/06 04:34:10;;;;;;;;;;;;;;;8.06;100.00;101444.66;5065486;28;19918;-74
2023/10/06 04:36:56;;;;;;;;;;;;;;;8.10;100.00;101447.75;5095258;28;19923;-74
2023/10/06 04:39:42;;;;;;;;;;;;;;;8.04;100.00;101442.13;5098425;28;19917;-74
2023/10/06 04:42:26;;;;;;;;;;;;;;;8.03;100.00;101437.72;5086969;28;19915;-74
2023/10/06 04:45:12;;;;;;;;;;;;;;;8.04;100.00;101449.59;5082445;28;19915;-74
2023/10/06 04:47:56;;;;;;;;;;;;;;;8.09;100.00;101446.09;5097775;28;19915;-74
2023/10/06 04:50:42;;;;;;;;;;;;;;;8.02;100.00;101440.72;5097627;28;19965;-74
2023/10/06 04:53:26;;;;;;;;;;;;;;;8.01;100.00;101441.81;5084183;28;19957;-74
2023/10/06 04:56:10;;;;;;;;;;;;;;;8.02;100.00;101446.25;5078972;28;19988;-74
2023/10/06 04:58:54;;;;;;;;;;;;;;;7.98;100.00;101445.09;5076043;28;19943;-74
2023/10/06 05:01:39;;;;;;;;;;;;;;;8.01;100.00;101445.41;5083718;28;19954;-74
2023/10/06 05:04:23;;;;;;;;;;;;;;;7.95;100.00;101445.59;5096334;28;19915;-74
2023/10/06 05:07:08;;;;;;;;;;;;;;;7.91;100.00;101445.28;5076116;28;19962;-74
2023/10/06 05:09:55;;;;;;;;;;;;;;;7.92;100.00;101441.41;5063385;28;20364;-74
2023/10/06 05:12:42;;;;;;;;;;;;;;;7.89;100.00;101450.22;5085727;28;19915;-74
2023/10/06 05:15:30;;;;;;;;;;;;;;;7.90;100.00;101451.06;5096848;28;20344;-74
2023/10/06 05:18:16;;;;;;;;;;;;;;;7.89;100.00;101447.47;5085539;28;19915;-74
2023/10/06 05:21:01;;;;;;;;;;;;;;;7.82;100.00;101453.16;5096518;28;20363;-74
2023/10/06 05:23:45;;;;;;;;;;;;;;;7.81;100.00;101448.72;5096567;28;19972;-74
2023/10/06 05:26:29;;;;;;;;;;;;;;;7.80;100.00;101448.97;5095849;28;19996;-74
2023/10/06 05:29:14;;;;;;;;;;;;;;;7.77;100.00;101453.09;5096131;28;19933;-74
2023/10/06 05:31:58;;;;;;;;;;;;;;;7.74;100.00;101461.88;5092428;28;20263;-74
2023/10/06 05:34:42;;;;;;;;;;;;;;;7.70;100.00;101469.00;5082226;28;19962;-74
2023/10/06 05:37:26;;;;;;;;;;;;;;;7.72;100.00;101464.06;5087118;28;19927;-74
2023/10/06 05:40:16;;;;;;;;;;;;;;;7.70;100.00;101469.00;5096606;28;19919;-74
2023/10/06 05:43:02;;;;;;;;;;;;;;;7.67;100.00;101463.97;5103753;28;19920;-74
2023/10/06 05:45:51;;;;;;;;;;;;;;;7.63;100.00;101468.31;5107841;28;20337;-74
2023/10/06 05:48:36;;;;;;;;;;;;;;;7.65;100.00;101460.63;5082508;28;20007;-74
2023/10/06 05:51:21;;;;;;;;;;;;;;;7.58;100.00;101474.63;5076004;28;20015;-74
2023/10/06 05:54:09;;;;;;;;;;;;;;;7.59;100.00;101465.22;5075918;28;19999;-74
2023/10/06 05:56:53;;;;;;;;;;;;;;;7.61;100.00;101468.59;5084475;28;19931;-74
2023/10/06 05:59:38;;;;;;;;;;;;;;;7.56;100.00;101481.50;5110643;28;19927;-74
2023/10/06 06:02:24;;;;;;;;;;;;;;;7.53;100.00;101470.94;5111058;28;19958;-74
2023/10/06 06:05:09;;;;;;;;;;;;;;;7.50;100.00;101475.03;5106292;28;19966;-74
2023/10/06 06:07:53;;;;;;;;;;;;;;;7.53;100.00;101470.94;5082587;28;19976;-74
2023/10/06 06:10:37;;;;;;;;;;;;;;;7.49;100.00;101467.81;5083508;28;20323;-74
2023/10/06 06:13:21;;;;;;;;;;;;;;;7.47;100.00;101460.88;5093902;28;19931;-74
2023/10/06 06:16:05;;;;;;;;;;;;;;;7.46;100.00;101461.94;5095699;28;20378;-74
2023/10/06 06:18:50;;;;;;;;;;;;;;;7.45;100.00;101468.59;5081790;28;19931;-74
2023/10/06 06:21:34;;;;;;;;;;;;;;;7.46;100.00;101473.00;5092423;28;19996;-74
2023/10/06 06:24:20;;;;;;;;;;;;;;;7.44;100.00;101464.97;5106835;28;20366;-74
2023/10/06 06:27:04;;;;;;;;;;;;;;;7.41;100.00;101471.00;5106908;28;19965;-74
2023/10/06 06:29:49;;;;;;;;;;;;;;;7.39;100.00;101476.78;5108464;28;19923;-74
2023/10/06 06:32:33;;;;;;;;;;;;;;;7.38;100.00;101483.41;5092504;28;20036;-74
2023/10/06 06:35:19;;;;;;;;;;;;;;;7.43;100.00;101484.56;5110843;28;19915;-75
2023/10/06 06:38:04;;;;;;;;;;;;;;;7.41;100.00;101489.50;5120806;28;20282;-74
2023/10/06 06:40:49;;;;;;;;;;;;;;;7.39;100.00;101485.06;5096161;28;20015;-74
2023/10/06 06:43:32;;;;;;;;;;;;;;;7.41;100.00;101489.50;5091467;28;19914;-74
2023/10/06 06:46:17;;;;;;;;;;;;;;;7.42;100.00;101486.50;5111401;28;20297;-74
2023/10/06 06:49:01;;;;;;;;;;;;;;;7.46;100.00;101495.13;5095319;28;20459;-74
2023/10/06 06:51:47;;;;;;;;;;;;;;;7.49;100.00;101498.22;5103367;28;20256;-78
2023/10/06 06:54:36;;;;;;;;;;;;;;;7.51;100.00;101489.69;5121146;28;20258;-78
2023/10/06 06:57:21;;;;;;;;;;;;;;;7.59;100.00;101500.34;5111710;28;19976;-78
2023/10/06 07:00:09;;;;;;;;;;;;;;;7.66;100.00;101502.94;5094724;28;20366;-78
2023/10/06 07:02:54;;;;;;;;;;;;;;;7.73;100.00;101498.91;5108674;28;19914;-79
2023/10/06 07:05:38;;;;;;;;;;;;;;;7.80;100.00;101513.44;5091866;28;19966;-79
2023/10/06 07:08:23;;;;;;;;;;;;;;;7.88;100.00;101516.84;5095960;28;19981;-79
2023/10/06 07:11:10;;;;;;;;;;;;;;;7.97;100.00;101518.13;5104464;28;20313;-79
2023/10/06 07:13:55;;;;;;;;;;;;;;;8.08;100.00;101517.19;5105803;28;19915;-79
2023/10/06 07:16:42;;;;;;;;;;;;;;;8.21;100.00;101516.00;5094356;28;19915;-78
2023/10/06 07:19:25;;;;;;;;;;;;;;;8.35;100.00;101517.31;5105802;28;19915;-78
2023/10/06 07:22:10;;;;;;;;;;;;;;;8.47;100.00;101520.84;5098302;28;19915;-79
2023/10/06 07:24:55;;;;;;;;;;;;;;;8.62;100.00;101520.22;5088416;28;19963;-79
2023/10/06 07:27:39;;;;;;;;;;;;;;;8.77;100.00;101522.34;5107178;28;19952;-78
2023/10/06 07:30:23;;;;;;;;;;;;;;;8.93;100.00;101523.38;5108032;28;20019;-79
2023/10/06 07:33:07;;;;;;;;;;;;;;;9.07;100.00;101519.09;5108314;28;19991;-79
2023/10/06 07:35:53;;;;;;;;;;;;;;;9.25;100.00;101525.38;5082880;28;19976;-79
2023/10/06 07:38:37;;;;;;;;;;;;;;;9.41;100.00;101524.44;5107705;28;20019;-79
2023/10/06 07:41:24;;;;;;;;;;;;;;;9.56;100.00;101519.06;5105108;28;19914;-78
2023/10/06 07:44:08;;;;;;;;;;;;;;;9.75;100.00;101518.66;5098610;28;19915;-79
2023/10/06 07:46:52;;;;;;;;;;;;;;;9.91;100.00;101523.25;5105824;28;19915;-79
2023/10/06 07:49:40;;;;;;;;;;;;;;;10.09;100.00;101523.97;5104250;28;19953;-79
2023/10/06 07:52:25;;;;;;;;;;;;;;;10.28;100.00;101528.03;5120064;28;19952;-79
2023/10/06 07:55:10;;;;;;;;;;;;;;;10.45;100.00;101525.91;5077821;28;19996;-79
2023/10/06 07:57:54;;;;;;;;;;;;;;;10.63;100.00;101534.88;5108360;28;19915;-79
2023/10/06 08:00:42;;;;;;;;;;;;;;;10.82;100.00;101530.53;5120068;28;19919;-79
2023/10/06 08:03:26;;;;;;;;;;;;;;;11.01;100.00;101535.63;5095482;28;19915;-79
2023/10/06 08:06:16;;;;;;;;;;;;;;;11.21;100.00;101543.19;5102068;28;19957;-79
2023/10/06 08:09:05;;;;;;;;;;;;;;;11.41;100.00;101534.91;5112590;28;20341;-79
2023/10/06 08:11:49;;;;;;;;;;;;;;;11.57;100.00;101539.38;5084172;28;20020;-79
2023/10/06 08:14:33;;;;;;;;;;;;;;;11.75;100.00;101539.97;5103450;28;20330;-79
2023/10/06 08:17:19;;;;;;;;;;;;;;;11.92;100.00;101545.28;5112397;28;19991;-79
2023/10/06 08:20:05;;;;;;;;;;;;;;;12.10;100.00;101552.25;5109727;28;19914;-79
2023/10/06 08:22:49;;;;;;;;;;;;;;;12.25;100.00;101552.25;5077423;28;19922;-79
2023/10/06 08:25:33;;;;;;;;;;;;;;;12.43;100.00;101548.88;5086656;28;20410;-79
2023/10/06 08:28:17;;;;;;;;;;;;;;;12.61;100.00;101555.81;5090943;28;19914;-79
2023/10/06 08:31:02;;;;;;;;;;;;;;;12.81;100.00;101551.28;5099949;28;19966;-79
2023/10/06 08:33:46;;;;;;;;;;;;;;;12.98;100.00;101543.41;5101904;28;19914;-79
2023/10/06 08:36:31;;;;;;;;;;;;;;;13.16;100.00;101541.94;5105417;28;20295;-79
2023/10/06 08:39:16;;;;;;;;;;;;;;;13.36;100.00;101546.63;5113850;28;19923;-79
2023/10/06 08:42:05;;;;;;;;;;;;;;;13.53;100.00;101547.06;5116988;28;20339;-79
2023/10/06 08:44:49;;;;;;;;;;;;;;;13.72;100.00;101550.00;5095113;28;19914;-79
2023/10/06 08:47:35;;;;;;;;;;;;;;;13.91;100.00;101536.19;5075004;28;20012;-77
2023/10/06 08:50:25;;;;;;;;;;;;;;;14.07;100.00;101545.28;5092397;28;19961;-77
2023/10/06 08:53:13;;;;;;;;;;;;;;;14.23;100.00;101552.38;5106812;28;19962;-77
2023/10/06 08:55:58;;;;;;;;;;;;;;;14.41;100.00;101559.22;5109889;28;19935;-77
2023/10/06 08:58:42;;;;;;;;;;;;;;;14.56;100.00;101565.81;5113518;28;19922;-77
2023/10/06 09:01:27;;;;;;;;;;;;;;;14.72;100.00;101565.34;5096399;28;19935;-77
2023/10/06 09:04:11;;;;;;;;;;;;;;;14.88;100.00;101560.44;5108674;28;19919;-77
2023/10/06 09:07:08;;;;;;;;;;;;;;;15.08;100.00;101561.31;5094762;28;19915;-77
2023/10/06 09:09:52;;;;;;;;;;;;;;;15.28;100.00;101557.41;5098468;28;19989;-77
2023/10/06 09:12:37;;;;;;;;;;;;;;;15.44;100.00;101563.63;5087153;28;20382;-77
2023/10/06 09:15:21;;;;;;;;;;;;;;;15.61;100.00;101563.94;5079133;28;19919;-77
2023/10/06 09:18:27;;;;;;;;;;;;;;;15.75;100.00;101566.84;5078634;28;19914;-77
2023/10/06 09:21:15;;;;;;;;;;;;;;;15.95;100.00;101549.72;5090392;28;19915;-77
2023/10/06 09:24:03;;;;;;;;;;;;;;;16.13;100.00;101552.78;5106652;28;19959;-77
2023/10/06 09:26:48;;;;;;;;;;;;;;;16.28;100.00;101542.13;5099459;28;19960;-77
2023/10/06 09:29:33;;;;;;;;;;;;;;;16.44;100.00;101541.88;5095084;28;20283;-77
2023/10/06 09:32:23;;;;;;;;;;;;;;;16.60;100.00;101542.41;5105947;27;19915;-77
2023/10/06 09:35:22;;;;;;;;;;;;;;;16.77;100.00;101539.00;5107447;28;19914;-77
2023/10/06 09:38:16;;;;;;;;;;;;;;;16.91;100.00;101539.84;5089420;28;19923;-78
2023/10/06 09:41:00;;;;;;;;;;;;;;;17.07;100.00;101534.75;5097085;28;19915;-77
2023/10/06 09:43:45;;;;;;;;;;;;;;;17.19;100.00;101532.25;5089014;28;20004;-77
2023/10/06 09:46:29;;;;;;;;;;;;;;;17.33;100.00;101535.88;5106805;28;19915;-77
2023/10/06 09:49:18;;;;;;;;;;;;;;;17.48;100.00;101533.84;5090342;28;19919;-77
2023/10/06 09:52:02;;;;;;;;;;;;;;;17.60;100.00;101532.13;5092667;28;19915;-77
2023/10/06 09:54:46;;;;;;;;;;;;;;;17.72;100.00;101527.94;5111065;28;19962;-77
2023/10/06 09:57:31;;;;;;;;;;;;;;;17.85;100.00;101519.50;5094748;28;19958;-78
2023/10/06 10:00:17;;;;;;;;;;;;;;;17.98;100.00;101531.81;5094609;28;19934;-77
2023/10/06 10:03:00;;;;;;;;;;;;;;;18.12;100.00;101525.31;5089090;28;19946;-77
2023/10/06 10:05:45;;;;;;;;;;;;;;;18.22;100.00;101519.41;5108316;28;19914;-77
2023/10/06 10:08:30;;;;;;;;;;;;;;;18.37;100.00;101516.19;5112493;28;19918;-77
2023/10/06 10:11:39;;;;;;;;;;;;;;;18.49;100.00;101519.22;5090282;28;20366;-77
2023/10/06 10:14:36;;;;;;;;;;;;;;;18.65;100.00;101521.63;5110851;28;19930;-77
2023/10/06 10:17:29;;;;;;;;;;;;;;;18.78;100.00;101517.91;5117545;28;19915;-77
2023/10/06 10:20:15;;;;;;;;;;;;;;;18.91;100.00;101524.56;5113824;28;19975;-77
2023/10/06 10:23:01;;;;;;;;;;;;;;;19.03;100.00;101526.75;5096715;28;19963;-78
2023/10/06 10:25:44;;;;;;;;;;;;;;;19.15;100.00;101526.97;5104185;28;19918;-77
2023/10/06 10:28:28;;;;;;;;;;;;;;;19.27;100.00;101521.50;5087456;28;19922;-77
2023/10/06 10:31:17;;;;;;;;;;;;;;;19.39;100.00;101521.72;5087176;28;20338;-78
2023/10/06 10:34:01;;;;;;;;;;;;;;;19.52;100.00;101510.59;5077130;28;19973;-78
2023/10/06 10:36:47;;;;;;;;;;;;;;;19.65;100.00;101509.63;5094282;28;19930;-78
2023/10/06 10:39:43;;;;;;;;;;;;;;;19.76;100.00;101510.16;5100461;28;19914;-77
2023/10/06 10:42:37;;;;;;;;;;;;;;;19.89;100.00;101502.66;5096163;28;20038;-78
2023/10/06 10:45:30;;;;;;;;;;;;;;;20.02;100.00;101501.66;5075341;28;19914;-78
2023/10/06 10:48:14;;;;;;;;;;;;;;;20.14;100.00;101498.97;5099340;28;19914;-78
2023/10/06 10:51:07;;;;;;;;;;;;;;;20.25;100.00;101503.13;5109456;28;19915;-78
2023/10/06 10:53:51;;;;;;;;;;;;;;;20.38;100.00;101497.59;5071673;28;19934;-78
2023/10/06 10:56:36;;;;;;;;;;;;;;;20.51;100.00;101497.38;5095127;28;19914;-78
2023/10/06 10:59:21;;;;;;;;;;;;;;;20.59;100.00;101498.56;5087565;28;20264;-78
2023/10/06 11:02:08;;;;;;;;;;;;;;;20.70;100.00;101499.00;5110670;28;19915;-77
2023/10/06 11:04:52;;;;;;;;;;;;;;;20.77;100.00;101502.13;5105240;28;20418;-78
2023/10/06 11:07:36;;;;;;;;;;;;;;;20.81;100.00;101496.59;5104586;28;20367;-78
2023/10/06 11:10:22;;;;;;;;;;;;;;;20.88;100.00;101499.75;5120371;28;19934;-78
2023/10/06 11:13:18;;;;;;;;;;;;;;;20.95;100.00;101505.69;5107664;28;19914;-78
2023/10/06 11:16:05;;;;;;;;;;;;;;;21.00;100.00;101501.81;5097180;28;19918;-77
2023/10/06 11:18:49;;;;;;;;;;;;;;;21.09;100.00;101506.28;5111342;28;19950;-77
2023/10/06 11:21:33;;;;;;;;;;;;;;;21.18;100.00;101500.56;5115480;28;19960;-78
2023/10/06 11:24:24;;;;;;;;;;;;;;;21.28;100.00;101505.78;5105415;28;19956;-77
2023/10/06 11:27:23;;;;;;;;;;;;;;;21.36;100.00;101502.06;5091422;28;19953;-78
2023/10/06 11:30:08;;;;;;;;;;;;;;;21.45;100.00;101499.22;5111100;28;20339;-78
2023/10/06 11:32:51;;;;;;;;;;;;;;;21.51;100.00;101499.88;5108792;28;20363;-78
2023/10/06 11:35:36;;;;;;;;;;;;;;;21.63;100.00;101497.09;5105041;28;19923;-78
2023/10/06 11:38:20;;;;;;;;;;;;;;;21.71;100.00;101496.19;5109533;28;20316;-77
2023/10/06 11:41:05;;;;;;;;;;;;;;;21.80;100.00;101504.59;5113584;28;19915;-78
2023/10/06 11:43:54;;;;;;;;;;;;;;;21.86;99.39;101489.06;5107178;28;19961;-78
2023/10/06 11:46:48;;;;;;;;;;;;;;;21.94;100.00;101490.97;5120290;28;19919;-78
2023/10/06 11:49:33;;;;;;;;;;;;;;;22.11;96.81;101483.50;5110052;28;20369;-78
2023/10/06 11:52:17;;;;;;;;;;;;;;;22.19;95.94;101489.09;5109302;28;20398;-78
2023/10/06 11:55:08;;;;;;;;;;;;;;;22.28;96.20;101486.16;5119557;28;19914;-78
2023/10/06 11:57:52;;;;;;;;;;;;;;;22.34;98.13;101483.94;5108832;28;20363;-78
2023/10/06 12:00:37;;;;;;;;;;;;;;;22.43;95.88;101477.00;5111753;28;19915;-78
2023/10/06 12:03:31;;;;;;;;;;;;;;;22.48;98.63;101471.13;5081274;28;19942;-78
2023/10/06 12:06:16;;;;;;;;;;;;;;;22.53;86.76;101473.69;5105219;28;19914;-78
2023/10/06 12:09:00;;;;;;;;;;;;;;;22.59;88.07;101479.13;5108525;28;19936;-78
2023/10/06 12:11:44;;;;;;;;;;;;;;;22.63;95.06;101478.09;5081514;28;19915;-78
2023/10/06 12:14:28;;;;;;;;;;;;;;;22.68;94.58;101480.69;5119722;28;20267;-78
2023/10/06 12:17:14;;;;;;;;;;;;;;;22.71;89.29;101471.47;5098291;28;20457;-78
2023/10/06 12:19:58;;;;;;;;;;;;;;;22.77;92.14;101472.06;5094179;28;19954;-78
2023/10/06 12:22:43;;;;;;;;;;;;;;;22.84;95.19;101465.81;5104954;28;19914;-78
2023/10/06 12:25:27;;;;;;;;;;;;;;;22.90;95.82;101464.38;5089986;28;19915;-78
2023/10/06 12:28:16;;;;;;;;;;;;;;;22.98;95.60;101463.47;5112263;28;19915;-78
2023/10/06 12:31:02;;;;;;;;;;;;;;;23.05;88.18;101462.88;5083499;28;19914;-78
2023/10/06 12:33:56;;;;;;;;;;;;;;;23.12;89.52;101460.25;5082085;28;19950;-78
2023/10/06 12:36:41;;;;;;;;;;;;;;;23.14;85.68;101469.22;5079541;28;19974;-78
2023/10/06 12:39:34;;;;;;;;;;;;;;;23.18;85.63;101458.84;5091462;28;19973;-78
2023/10/06 12:42:18;;;;;;;;;;;;;;;23.23;88.25;101455.75;5094036;28;19999;-78
2023/10/06 12:45:03;;;;;;;;;;;;;;;23.28;82.51;101458.34;5119132;28;20019;-78
2023/10/06 12:47:47;;;;;;;;;;;;;;;23.37;80.16;101449.69;5119174;28;19915;-78
2023/10/06 12:50:37;;;;;;;;;;;;;;;23.44;80.44;101460.44;5104547;28;19939;-79
2023/10/06 12:53:24;;;;;;;;;;;;;;;23.44;82.26;101449.91;5078348;28;19914;-79
2023/10/06 12:56:12;;;;;;;;;;;;;;;23.50;85.95;101450.50;5089651;28;19918;-79
2023/10/06 12:58:56;;;;;;;;;;;;;;;23.57;78.66;101443.03;5091110;28;20405;-79
2023/10/06 13:01:40;;;;;;;;;;;;;;;23.63;72.53;101443.59;5080691;28;19942;-80
2023/10/06 13:04:24;;;;;;;;;;;;;;;23.68;68.26;101440.50;5089791;28;19915;-80
2023/10/06 13:07:08;;;;;;;;;;;;;;;23.68;66.47;101433.97;5089383;28;19914;-80
2023/10/06 13:09:53;;;;;;;;;;;;;;;23.69;65.31;101430.78;5113038;28;19934;-79
2023/10/06 13:12:41;;;;;;;;;;;;;;;23.72;71.16;101432.94;5094519;28;19999;-81
2023/10/06 13:15:29;;;;;;;;;;;;;;;23.71;72.69;101428.47;5111297;28;19998;-78
2023/10/06 13:18:13;;;;;;;;;;;;;;;23.73;76.56;101433.75;5106325;28;19964;-78
2023/10/06 13:20:58;;;;;;;;;;;;;;;23.70;81.11;101423.94;5089935;28;19945;-78
2023/10/06 13:23:43;;;;;;;;;;;;;;;23.73;83.86;101426.06;5117874;28;19946;-77
2023/10/06 13:26:28;;;;;;;;;;;;;;;23.74;81.97;101430.56;5093597;28;19926;-78
2023/10/06 13:29:12;;;;;;;;;;;;;;;23.74;85.19;101424.09;5096061;28;19961;-78
2023/10/06 13:31:56;;;;;;;;;;;;;;;23.76;75.51;101425.34;5105679;28;19953;-79
2023/10/06 13:34:42;;;;;;;;;;;;;;;23.75;76.80;101414.38;5086808;28;19952;-79
2023/10/06 13:37:30;;;;;;;;;;;;;;;23.75;79.18;101418.03;5070280;28;19927;-80
2023/10/06 13:40:15;;;;;;;;;;;;;;;23.80;75.12;101416.97;5097560;28;20298;-78
2023/10/06 13:43:00;;;;;;;;;;;;;;;23.79;78.07;101415.28;5094671;28;19915;-78
2023/10/06 13:45:44;;;;;;;;;;;;;;;23.79;79.40;101410.47;5096084;28;19914;-78
2023/10/06 13:48:31;;;;;;;;;;;;;;;23.78;79.63;101411.63;5081501;28;19915;-78
2023/10/06 13:51:16;;;;;;;;;;;;;;;23.77;76.17;101412.84;5078121;28;19915;-78
2023/10/06 13:54:00;;;;;;;;;;;;;;;23.76;75.86;101411.16;5095509;28;19969;-78
2023/10/06 13:56:44;;;;;;;;;;;;;;;23.74;75.51;101409.91;5083525;28;20283;-78
2023/10/06 13:59:28;;;;;;;;;;;;;;;23.75;78.25;101408.72;5095516;28;20264;-78
2023/10/06 14:02:12;;;;;;;;;;;;;;;23.75;75.98;101411.53;5075288;28;19970;-78
2023/10/06 14:04:57;;;;;;;;;;;;;;;23.72;68.65;101410.25;5084426;28;20401;-78
2023/10/06 14:07:41;;;;;;;;;;;;;;;23.65;74.83;101410.00;5076831;28;19985;-78
2023/10/06 14:10:25;;;;;;;;;;;;;;;23.61;73.68;101415.59;5077981;28;19919;-79
2023/10/06 14:18:43;;;;;;;;;;;;;;;23.36;68.78;101412.03;5095750;28;19915;-78